sensor_id;sensor_type;location;lat;lon;timestamp;pressure;altitude;pressure_sealevel;temperature;humidity
73101;BME280;61288;53.446;-2.266;2024-03-22T00:00:22;102517.50;;;9.38;100.00
73101;BME280;61288;53.446;-2.266;2024-03-22T00:02:47;102540.81;;;9.33;100.00
73101;BME280;61288;53.446;-2.266;2024-03-22T00:05:13;102545.16;;;9.31;100.00
73101;BME280;61288;53.446;-2.266;2024-03-22T00:07:38;102556.34;;;9.29;100.00
73101;BME280;61288;53.446;-2.266;2024-03-22T00:10:05;102568.44;;;9.27;100.00
73101;BME280;61288;53.446;-2.266;2024-03-22T00:12:31;102574.47;;;9.24;100.00
73101;BME280;61288;53.446;-2.266;2024-03-22T00:14:59;102593.44;;;9.23;100.00
73101;BME280;61288;53.446;-2.266;2024-03-22T00:17:25;102605.53;;;9.21;100.00
73101;BME280;61288;53.446;-2.266;2024-03-22T00:19:56;102609.03;;;9.14;100.00
73101;BME280;61288;53.446;-2.266;2024-03-22T00:22:22;102627.13;;;9.09;100.00
73101;BME280;61288;53.446;-2.266;2024-03-22T00:24:47;102629.75;;;9.04;100.00
73101;BME280;61288;53.446;-2.266;2024-03-22T00:27:13;102647.00;;;8.99;100.00
73101;BME280;61288;53.446;-2.266;2024-03-22T00:29:38;102649.59;;;8.94;100.00
73101;BME280;61288;53.446;-2.266;2024-03-22T00:32:04;102658.22;;;8.89;100.00
73101;BME280;61288;53.446;-2.266;2024-03-22T00:34:30;102661.66;;;8.85;100.00
73101;BME280;61288;53.446;-2.266;2024-03-22T00:36:55;102680.63;;;8.84;100.00
73101;BME280;61288;53.446;-2.266;2024-03-22T00:39:21;102680.66;;;8.79;100.00
73101;BME280;61288;53.446;-2.266;2024-03-22T00:41:46;102692.72;;;8.75;100.00
73101;BME280;61288;53.446;-2.266;2024-03-22T00:44:12;102713.38;;;8.72;100.00
73101;BME280;61288;53.446;-2.266;2024-03-22T00:46:40;102715.97;;;8.71;100.00
73101;BME280;61288;53.446;-2.266;2024-03-22T00:49:05;102722.00;;;8.68;100.00
73101;BME280;61288;53.446;-2.266;2024-03-22T00:51:31;102734.94;;;8.65;100.00
73101;BME280;61288;53.446;-2.266;2024-03-22T00:53:57;102735.78;;;8.62;100.00
73101;BME280;61288;53.446;-2.266;2024-03-22T00:56:22;102739.22;;;8.61;100.00
73101;BME280;61288;53.446;-2.266;2024-03-22T00:58:48;102742.69;;;8.57;100.00
73101;BME280;61288;53.446;-2.266;2024-03-22T01:01:13;102748.69;;;8.55;100.00
73101;BME280;61288;53.446;-2.266;2024-03-22T01:03:39;102750.41;;;8.52;100.00
73101;BME280;61288;53.446;-2.266;2024-03-22T01:06:04;102749.50;;;8.47;100.00
73101;BME280;61288;53.446;-2.266;2024-03-22T01:08:30;102754.66;;;8.43;100.00
73101;BME280;61288;53.446;-2.266;2024-03-22T01:10:55;102757.25;;;8.39;100.00
73101;BME280;61288;53.446;-2.266;2024-03-22T01:13:21;102767.59;;;8.39;100.00
73101;BME280;61288;53.446;-2.266;2024-03-22T01:15:47;102772.75;;;8.36;100.00
73101;BME280;61288;53.446;-2.266;2024-03-22T01:18:12;102781.38;;;8.37;100.00
73101;BME280;61288;53.446;-2.266;2024-03-22T01:20:38;102793.41;;;8.36;100.00
73101;BME280;61288;53.446;-2.266;2024-03-22T01:23:03;102789.97;;;8.37;100.00
73101;BME280;61288;53.446;-2.266;2024-03-22T01:25:29;102799.44;;;8.34;100.00
73101;BME280;61288;53.446;-2.266;2024-03-22T01:27:56;102805.44;;;8.31;100.00
73101;BME280;61288;53.446;-2.266;2024-03-22T01:30:22;102811.50;;;8.29;100.00
73101;BME280;61288;53.446;-2.266;2024-03-22T01:32:47;102821.78;;;8.26;100.00
73101;BME280;61288;53.446;-2.266;2024-03-22T01:35:13;102819.19;;;8.22;100.00
73101;BME280;61288;53.446;-2.266;2024-03-22T01:37:38;102820.06;;;8.21;100.00
73101;BME280;61288;53.446;-2.266;2024-03-22T01:40:04;102824.38;;;8.18;100.00
73101;BME280;61288;53.446;-2.266;2024-03-22T01:42:33;102828.66;;;8.16;100.00
73101;BME280;61288;53.446;-2.266;2024-03-22T01:44:59;102832.09;;;8.16;100.00
73101;BME280;61288;53.446;-2.266;2024-03-22T01:47:24;102839.81;;;8.13;100.00
73101;BME280;61288;53.446;-2.266;2024-03-22T01:49:51;102837.25;;;8.10;100.00
73101;BME280;61288;53.446;-2.266;2024-03-22T01:52:18;102844.09;;;8.06;100.00
73101;BME280;61288;53.446;-2.266;2024-03-22T01:54:43;102840.63;;;8.01;100.00
73101;BME280;61288;53.446;-2.266;2024-03-22T01:57:09;102838.00;;;7.93;100.00
73101;BME280;61288;53.446;-2.266;2024-03-22T01:59:35;102827.63;;;7.84;100.00
73101;BME280;61288;53.446;-2.266;2024-03-22T02:02:00;102819.03;;;7.82;100.00
73101;BME280;61288;53.446;-2.266;2024-03-22T02:04:28;102807.81;;;7.78;100.00
73101;BME280;61288;53.446;-2.266;2024-03-22T02:06:53;102812.09;;;7.76;100.00
73101;BME280;61288;53.446;-2.266;2024-03-22T02:09:19;102807.81;;;7.74;100.00
73101;BME280;61288;53.446;-2.266;2024-03-22T02:11:48;102808.66;;;7.73;100.00
73101;BME280;61288;53.446;-2.266;2024-03-22T02:14:13;102809.50;;;7.70;100.00
73101;BME280;61288;53.446;-2.266;2024-03-22T02:16:42;102816.41;;;7.70;100.00
73101;BME280;61288;53.446;-2.266;2024-03-22T02:19:08;102824.97;;;7.70;100.00
73101;BME280;61288;53.446;-2.266;2024-03-22T02:21:37;102817.25;;;7.69;100.00
73101;BME280;61288;53.446;-2.266;2024-03-22T02:24:06;102821.53;;;7.71;100.00
73101;BME280;61288;53.446;-2.266;2024-03-22T02:26:31;102825.00;;;7.69;100.00
73101;BME280;61288;53.446;-2.266;2024-03-22T02:28:57;102818.97;;;7.70;100.00
73101;BME280;61288;53.446;-2.266;2024-03-22T02:31:25;102818.09;;;7.68;100.00
73101;BME280;61288;53.446;-2.266;2024-03-22T02:33:52;102813.78;;;7.66;100.00
73101;BME280;61288;53.446;-2.266;2024-03-22T02:36:17;102801.75;;;7.65;100.00
73101;BME280;61288;53.446;-2.266;2024-03-22T02:38:43;102803.47;;;7.63;100.00
73101;BME280;61288;53.446;-2.266;2024-03-22T02:41:08;102799.13;;;7.61;100.00
73101;BME280;61288;53.446;-2.266;2024-03-22T02:43:34;102794.81;;;7.58;100.00
73101;BME280;61288;53.446;-2.266;2024-03-22T02:46:03;102795.66;;;7.57;100.00
73101;BME280;61288;53.446;-2.266;2024-03-22T02:48:31;102799.09;;;7.56;100.00
73101;BME280;61288;53.446;-2.266;2024-03-22T02:50:57;102793.94;;;7.55;100.00
73101;BME280;61288;53.446;-2.266;2024-03-22T02:53:22;102787.06;;;7.54;100.00
73101;BME280;61288;53.446;-2.266;2024-03-22T02:55:51;102781.88;;;7.49;100.00
73101;BME280;61288;53.446;-2.266;2024-03-22T02:58:20;102784.44;;;7.47;100.00
73101;BME280;61288;53.446;-2.266;2024-03-22T03:00:46;102772.41;;;7.46;100.00
73101;BME280;61288;53.446;-2.266;2024-03-22T03:03:22;102775.00;;;7.46;100.00
73101;BME280;61288;53.446;-2.266;2024-03-22T03:05:48;102768.06;;;7.42;100.00
73101;BME280;61288;53.446;-2.266;2024-03-22T03:08:14;102754.28;;;7.40;100.00
73101;BME280;61288;53.446;-2.266;2024-03-22T03:10:39;102748.25;;;7.38;100.00
73101;BME280;61288;53.446;-2.266;2024-03-22T03:13:05;102745.66;;;7.35;100.00
73101;BME280;61288;53.446;-2.266;2024-03-22T03:15:33;102752.53;;;7.33;100.00
73101;BME280;61288;53.446;-2.266;2024-03-22T03:17:58;102745.69;;;7.33;100.00
73101;BME280;61288;53.446;-2.266;2024-03-22T03:20:24;102732.75;;;7.30;100.00
73101;BME280;61288;53.446;-2.266;2024-03-22T03:22:50;102733.63;;;7.29;100.00
73101;BME280;61288;53.446;-2.266;2024-03-22T03:25:16;102732.75;;;7.29;100.00
73101;BME280;61288;53.446;-2.266;2024-03-22T03:27:41;102722.41;;;7.27;100.00
73101;BME280;61288;53.446;-2.266;2024-03-22T03:30:10;102720.69;;;7.26;100.00
73101;BME280;61288;53.446;-2.266;2024-03-22T03:32:36;102726.72;;;7.27;100.00
73101;BME280;61288;53.446;-2.266;2024-03-22T03:35:01;102724.13;;;7.23;100.00
73101;BME280;61288;53.446;-2.266;2024-03-22T03:37:27;102715.50;;;7.23;100.00
73101;BME280;61288;53.446;-2.266;2024-03-22T03:39:52;102725.84;;;7.25;100.00
73101;BME280;61288;53.446;-2.266;2024-03-22T03:42:18;102717.25;;;7.22;100.00
73101;BME280;61288;53.446;-2.266;2024-03-22T03:44:43;102716.38;;;7.22;100.00
73101;BME280;61288;53.446;-2.266;2024-03-22T03:47:09;102720.66;;;7.20;100.00
73101;BME280;61288;53.446;-2.266;2024-03-22T03:49:34;102713.75;;;7.19;100.00
73101;BME280;61288;53.446;-2.266;2024-03-22T03:52:00;102716.31;;;7.16;100.00
73101;BME280;61288;53.446;-2.266;2024-03-22T03:54:25;102723.22;;;7.17;100.00
73101;BME280;61288;53.446;-2.266;2024-03-22T03:56:51;102708.59;;;7.14;100.00
73101;BME280;61288;53.446;-2.266;2024-03-22T03:59:17;102711.13;;;7.11;100.00
73101;BME280;61288;53.446;-2.266;2024-03-22T04:01:42;102717.16;;;7.12;100.00
73101;BME280;61288;53.446;-2.266;2024-03-22T04:04:08;102705.97;;;7.10;100.00
73101;BME280;61288;53.446;-2.266;2024-03-22T04:06:33;102692.22;;;7.07;100.00
73101;BME280;61288;53.446;-2.266;2024-03-22T04:08:59;102697.34;;;7.06;100.00
73101;BME280;61288;53.446;-2.266;2024-03-22T04:11:26;102691.34;;;7.02;100.00
73101;BME280;61288;53.446;-2.266;2024-03-22T04:13:51;102681.00;;;6.99;100.00
73101;BME280;61288;53.446;-2.266;2024-03-22T04:16:17;102684.41;;;6.97;100.00
73101;BME280;61288;53.446;-2.266;2024-03-22T04:18:42;102677.50;;;6.94;100.00
73101;BME280;61288;53.446;-2.266;2024-03-22T04:21:07;102684.38;;;6.90;100.00
73101;BME280;61288;53.446;-2.266;2024-03-22T04:23:33;102680.91;;;6.85;100.00
73101;BME280;61288;53.446;-2.266;2024-03-22T04:26:00;102674.88;;;6.83;100.00
73101;BME280;61288;53.446;-2.266;2024-03-22T04:28:26;102663.66;;;6.78;100.00
73101;BME280;61288;53.446;-2.266;2024-03-22T04:31:06;102664.50;;;6.74;100.00
73101;BME280;61288;53.446;-2.266;2024-03-22T04:33:37;102667.06;;;6.71;100.00
73101;BME280;61288;53.446;-2.266;2024-03-22T04:36:04;102661.88;;;6.66;100.00
73101;BME280;61288;53.446;-2.266;2024-03-22T04:38:30;102657.53;;;6.60;100.00
73101;BME280;61288;53.446;-2.266;2024-03-22T04:40:56;102646.38;;;6.58;100.00
73101;BME280;61288;53.446;-2.266;2024-03-22T04:43:23;102652.34;;;6.56;100.00
73101;BME280;61288;53.446;-2.266;2024-03-22T04:45:50;102646.34;;;6.55;100.00
73101;BME280;61288;53.446;-2.266;2024-03-22T04:48:20;102646.31;;;6.52;100.00
73101;BME280;61288;53.446;-2.266;2024-03-22T04:50:51;102630.00;;;6.50;100.00
73101;BME280;61288;53.446;-2.266;2024-03-22T04:53:17;102623.13;;;6.49;100.00
73101;BME280;61288;53.446;-2.266;2024-03-22T04:55:43;102631.69;;;6.48;100.00
73101;BME280;61288;53.446;-2.266;2024-03-22T04:58:20;102636.81;;;6.46;100.00
73101;BME280;61288;53.446;-2.266;2024-03-22T05:00:47;102635.94;;;6.46;100.00
73101;BME280;61288;53.446;-2.266;2024-03-22T05:03:13;102625.66;;;6.44;100.00
73101;BME280;61288;53.446;-2.266;2024-03-22T05:05:40;102637.66;;;6.44;100.00
73101;BME280;61288;53.446;-2.266;2024-03-22T05:08:06;102635.94;;;6.44;100.00
73101;BME280;61288;53.446;-2.266;2024-03-22T05:10:32;102633.38;;;6.46;100.00
73101;BME280;61288;53.446;-2.266;2024-03-22T05:12:58;102631.66;;;6.45;100.00
73101;BME280;61288;53.446;-2.266;2024-03-22T05:15:24;102638.53;;;6.46;100.00
73101;BME280;61288;53.446;-2.266;2024-03-22T05:17:53;102640.31;;;6.50;100.00
73101;BME280;61288;53.446;-2.266;2024-03-22T05:20:20;102642.88;;;6.50;100.00
73101;BME280;61288;53.446;-2.266;2024-03-22T05:22:48;102638.56;;;6.49;100.00
73101;BME280;61288;53.446;-2.266;2024-03-22T05:25:13;102642.84;;;6.48;100.00
73101;BME280;61288;53.446;-2.266;2024-03-22T05:27:40;102624.78;;;6.44;100.00
73101;BME280;61288;53.446;-2.266;2024-03-22T05:30:07;102617.03;;;6.39;100.00
73101;BME280;61288;53.446;-2.266;2024-03-22T05:32:33;102618.72;;;6.37;100.00
73101;BME280;61288;53.446;-2.266;2024-03-22T05:34:58;102632.47;;;6.36;100.00
73101;BME280;61288;53.446;-2.266;2024-03-22T05:37:24;102614.44;;;6.36;100.00
73101;BME280;61288;53.446;-2.266;2024-03-22T05:39:49;102629.88;;;6.36;100.00
73101;BME280;61288;53.446;-2.266;2024-03-22T05:42:15;102635.88;;;6.35;100.00
73101;BME280;61288;53.446;-2.266;2024-03-22T05:44:40;102621.28;;;6.35;100.00
73101;BME280;61288;53.446;-2.266;2024-03-22T05:47:09;102607.53;;;6.33;100.00
73101;BME280;61288;53.446;-2.266;2024-03-22T05:49:34;102611.81;;;6.31;100.00
73101;BME280;61288;53.446;-2.266;2024-03-22T05:52:03;102607.47;;;6.29;100.00
73101;BME280;61288;53.446;-2.266;2024-03-22T05:54:30;102616.97;;;6.30;100.00
73101;BME280;61288;53.446;-2.266;2024-03-22T05:56:56;102611.75;;;6.25;100.00
73101;BME280;61288;53.446;-2.266;2024-03-22T05:59:21;102616.88;;;6.24;100.00
73101;BME280;61288;53.446;-2.266;2024-03-22T06:01:47;102620.31;;;6.21;100.00
73101;BME280;61288;53.446;-2.266;2024-03-22T06:04:12;102627.16;;;6.19;100.00
73101;BME280;61288;53.446;-2.266;2024-03-22T06:06:38;102627.13;;;6.17;100.00
73101;BME280;61288;53.446;-2.266;2024-03-22T06:09:03;102629.72;;;6.17;100.00
73101;BME280;61288;53.446;-2.266;2024-03-22T06:11:32;102634.00;;;6.17;100.00
73101;BME280;61288;53.446;-2.266;2024-03-22T06:13:57;102626.25;;;6.14;100.00
73101;BME280;61288;53.446;-2.266;2024-03-22T06:16:23;102632.22;;;6.11;100.00
73101;BME280;61288;53.446;-2.266;2024-03-22T06:18:49;102625.41;;;6.15;100.00
73101;BME280;61288;53.446;-2.266;2024-03-22T06:21:20;102626.28;;;6.18;100.00
73101;BME280;61288;53.446;-2.266;2024-03-22T06:23:50;102626.31;;;6.21;100.00
73101;BME280;61288;53.446;-2.266;2024-03-22T06:26:16;102633.22;;;6.24;100.00
73101;BME280;61288;53.446;-2.266;2024-03-22T06:28:41;102631.47;;;6.25;100.00
73101;BME280;61288;53.446;-2.266;2024-03-22T06:31:07;102629.78;;;6.25;100.00
73101;BME280;61288;53.446;-2.266;2024-03-22T06:33:33;102630.63;;;6.26;100.00
73101;BME280;61288;53.446;-2.266;2024-03-22T06:35:58;102632.34;;;6.27;100.00
73101;BME280;61288;53.446;-2.266;2024-03-22T06:38:24;102629.78;;;6.25;100.00
73101;BME280;61288;53.446;-2.266;2024-03-22T06:40:49;102628.91;;;6.25;100.00
73101;BME280;61288;53.446;-2.266;2024-03-22T06:43:15;102622.91;;;6.24;100.00
73101;BME280;61288;53.446;-2.266;2024-03-22T06:45:40;102623.78;;;6.26;100.00
73101;BME280;61288;53.446;-2.266;2024-03-22T06:48:06;102622.94;;;6.27;100.00
73101;BME280;61288;53.446;-2.266;2024-03-22T06:50:31;102618.63;;;6.28;100.00
73101;BME280;61288;53.446;-2.266;2024-03-22T06:52:57;102617.81;;;6.30;100.00
73101;BME280;61288;53.446;-2.266;2024-03-22T06:55:22;102615.25;;;6.32;100.00
73101;BME280;61288;53.446;-2.266;2024-03-22T06:57:49;102627.31;;;6.36;100.00
73101;BME280;61288;53.446;-2.266;2024-03-22T07:00:18;102621.31;;;6.39;100.00
73101;BME280;61288;53.446;-2.266;2024-03-22T07:02:44;102611.84;;;6.38;100.00
73101;BME280;61288;53.446;-2.266;2024-03-22T07:05:10;102605.88;;;6.42;100.00
73101;BME280;61288;53.446;-2.266;2024-03-22T07:07:36;102614.53;;;6.48;100.00
73101;BME280;61288;53.446;-2.266;2024-03-22T07:10:03;102593.09;;;6.53;100.00
73101;BME280;61288;53.446;-2.266;2024-03-22T07:12:28;102601.69;;;6.56;100.00
73101;BME280;61288;53.446;-2.266;2024-03-22T07:14:55;102602.56;;;6.58;100.00
73101;BME280;61288;53.446;-2.266;2024-03-22T07:17:21;102599.13;;;6.58;100.00
73101;BME280;61288;53.446;-2.266;2024-03-22T07:19:52;102600.00;;;6.58;100.00
73101;BME280;61288;53.446;-2.266;2024-03-22T07:22:18;102599.97;;;6.57;100.00
73101;BME280;61288;53.446;-2.266;2024-03-22T07:24:44;102600.00;;;6.58;100.00
73101;BME280;61288;53.446;-2.266;2024-03-22T07:27:10;102600.88;;;6.60;100.00
73101;BME280;61288;53.446;-2.266;2024-03-22T07:29:35;102600.06;;;6.68;100.00
73101;BME280;61288;53.446;-2.266;2024-03-22T07:32:01;102595.81;;;6.77;100.00
73101;BME280;61288;53.446;-2.266;2024-03-22T07:34:26;102597.63;;;6.89;100.00
73101;BME280;61288;53.446;-2.266;2024-03-22T07:36:52;102589.94;;;7.02;100.00
73101;BME280;61288;53.446;-2.266;2024-03-22T07:39:18;102595.19;;;7.20;100.00
73101;BME280;61288;53.446;-2.266;2024-03-22T07:41:44;102602.09;;;7.37;100.00
73101;BME280;61288;53.446;-2.266;2024-03-22T07:44:09;102602.16;;;7.51;100.00
73101;BME280;61288;53.446;-2.266;2024-03-22T07:46:36;102603.91;;;7.61;100.00
73101;BME280;61288;53.446;-2.266;2024-03-22T07:49:01;102594.47;;;7.63;100.00
73101;BME280;61288;53.446;-2.266;2024-03-22T07:51:29;102592.72;;;7.59;100.00
73101;BME280;61288;53.446;-2.266;2024-03-22T07:53:55;102586.69;;;7.56;100.00
73101;BME280;61288;53.446;-2.266;2024-03-22T07:56:20;102591.84;;;7.60;100.00
73101;BME280;61288;53.446;-2.266;2024-03-22T07:58:46;102609.94;;;7.59;100.00
73101;BME280;61288;53.446;-2.266;2024-03-22T08:01:12;102597.88;;;7.55;100.00
73101;BME280;61288;53.446;-2.266;2024-03-22T08:03:37;102590.16;;;7.64;100.00
73101;BME280;61288;53.446;-2.266;2024-03-22T08:06:05;102597.03;;;7.71;100.00
73101;BME280;61288;53.446;-2.266;2024-03-22T08:08:31;102593.59;;;7.78;100.00
73101;BME280;61288;53.446;-2.266;2024-03-22T08:10:59;102590.22;;;7.92;100.00
73101;BME280;61288;53.446;-2.266;2024-03-22T08:13:25;102585.91;;;8.03;100.00
73101;BME280;61288;53.446;-2.266;2024-03-22T08:15:50;102594.53;;;8.15;100.00
73101;BME280;61288;53.446;-2.266;2024-03-22T08:18:17;102588.47;;;8.09;100.00
73101;BME280;61288;53.446;-2.266;2024-03-22T08:20:43;102577.31;;;8.14;100.00
73101;BME280;61288;53.446;-2.266;2024-03-22T08:23:08;102583.34;;;8.30;100.00
73101;BME280;61288;53.446;-2.266;2024-03-22T08:25:34;102579.84;;;8.45;100.00
73101;BME280;61288;53.446;-2.266;2024-03-22T08:28:00;102583.31;;;8.70;100.00
73101;BME280;61288;53.446;-2.266;2024-03-22T08:30:26;102581.56;;;8.75;100.00
73101;BME280;61288;53.446;-2.266;2024-03-22T08:32:52;102570.34;;;8.75;100.00
73101;BME280;61288;53.446;-2.266;2024-03-22T08:35:17;102573.00;;;8.59;100.00
73101;BME280;61288;53.446;-2.266;2024-03-22T08:37:47;102587.63;;;8.57;100.00
73101;BME280;61288;53.446;-2.266;2024-03-22T08:40:13;102579.03;;;8.53;100.00
73101;BME280;61288;53.446;-2.266;2024-03-22T08:42:39;102572.13;;;8.34;100.00
73101;BME280;61288;53.446;-2.266;2024-03-22T08:45:05;102581.56;;;8.43;100.00
73101;BME280;61288;53.446;-2.266;2024-03-22T08:47:31;102578.19;;;8.53;100.00
73101;BME280;61288;53.446;-2.266;2024-03-22T08:49:58;102584.19;;;8.58;100.00
73101;BME280;61288;53.446;-2.266;2024-03-22T08:52:24;102591.84;;;8.94;100.00
73101;BME280;61288;53.446;-2.266;2024-03-22T08:54:52;102584.09;;;8.95;100.00
73101;BME280;61288;53.446;-2.266;2024-03-22T08:57:18;102580.63;;;9.04;100.00
73101;BME280;61288;53.446;-2.266;2024-03-22T08:59:44;102576.22;;;9.27;100.00
73101;BME280;61288;53.446;-2.266;2024-03-22T09:02:10;102580.22;;;9.77;100.00
73101;BME280;61288;53.446;-2.266;2024-03-22T09:04:39;102583.31;;;10.28;100.00
73101;BME280;61288;53.446;-2.266;2024-03-22T09:07:07;102581.66;;;11.03;100.00
73101;BME280;61288;53.446;-2.266;2024-03-22T09:09:32;102602.44;;;11.02;100.00
73101;BME280;61288;53.446;-2.266;2024-03-22T09:11:58;102632.41;;;11.26;100.00
73101;BME280;61288;53.446;-2.266;2024-03-22T09:14:23;102647.03;;;11.32;100.00
73101;BME280;61288;53.446;-2.266;2024-03-22T09:16:49;102661.28;;;11.68;100.00
73101;BME280;61288;53.446;-2.266;2024-03-22T09:19:14;102704.97;;;11.35;100.00
73101;BME280;61288;53.446;-2.266;2024-03-22T09:21:40;102705.09;;;11.23;100.00
73101;BME280;61288;53.446;-2.266;2024-03-22T09:24:05;102710.94;;;11.42;100.00
73101;BME280;61288;53.446;-2.266;2024-03-22T09:26:32;102724.53;;;11.64;100.00
73101;BME280;61288;53.446;-2.266;2024-03-22T09:28:58;102745.56;;;12.15;100.00
73101;BME280;61288;53.446;-2.266;2024-03-22T09:31:24;102816.84;;;11.90;100.00
73101;BME280;61288;53.446;-2.266;2024-03-22T09:33:49;102808.91;;;12.04;100.00
73101;BME280;61288;53.446;-2.266;2024-03-22T09:36:15;102852.84;;;11.41;100.00
73101;BME280;61288;53.446;-2.266;2024-03-22T09:38:41;102875.72;;;10.99;100.00
73101;BME280;61288;53.446;-2.266;2024-03-22T09:41:06;102846.56;;;10.58;100.00
73101;BME280;61288;53.446;-2.266;2024-03-22T09:43:33;102794.63;;;10.72;100.00
73101;BME280;61288;53.446;-2.266;2024-03-22T09:46:03;102774.69;;;10.82;100.00
73101;BME280;61288;53.446;-2.266;2024-03-22T09:48:29;102742.88;;;11.50;100.00
73101;BME280;61288;53.446;-2.266;2024-03-22T09:50:54;102745.22;;;11.70;100.00
73101;BME280;61288;53.446;-2.266;2024-03-22T09:53:21;102783.09;;;11.87;100.00
73101;BME280;61288;53.446;-2.266;2024-03-22T09:55:51;102830.69;;;11.89;100.00
73101;BME280;61288;53.446;-2.266;2024-03-22T09:58:23;102861.34;;;11.58;100.00
73101;BME280;61288;53.446;-2.266;2024-03-22T10:00:48;102848.69;;;11.23;100.00
73101;BME280;61288;53.446;-2.266;2024-03-22T10:03:16;102804.56;;;11.28;100.00
73101;BME280;61288;53.446;-2.266;2024-03-22T10:05:42;102790.41;;;11.54;100.00
73101;BME280;61288;53.446;-2.266;2024-03-22T10:08:07;102816.00;;;11.01;100.00
73101;BME280;61288;53.446;-2.266;2024-03-22T10:10:33;102803.38;;;10.55;100.00
73101;BME280;61288;53.446;-2.266;2024-03-22T10:13:04;102807.06;;;10.09;100.00
73101;BME280;61288;53.446;-2.266;2024-03-22T10:15:33;102776.72;;;10.32;100.00
73101;BME280;61288;53.446;-2.266;2024-03-22T10:17:58;102773.47;;;9.92;100.00
73101;BME280;61288;53.446;-2.266;2024-03-22T10:20:24;102765.78;;;9.69;100.00
73101;BME280;61288;53.446;-2.266;2024-03-22T10:22:59;102710.19;;;10.40;100.00
73101;BME280;61288;53.446;-2.266;2024-03-22T10:25:28;102717.56;;;10.88;100.00
73101;BME280;61288;53.446;-2.266;2024-03-22T10:27:54;102751.00;;;11.18;100.00
73101;BME280;61288;53.446;-2.266;2024-03-22T10:30:20;102750.50;;;11.63;100.00
73101;BME280;61288;53.446;-2.266;2024-03-22T10:32:47;102775.47;;;11.73;100.00
73101;BME280;61288;53.446;-2.266;2024-03-22T10:35:17;102827.72;;;11.48;100.00
73101;BME280;61288;53.446;-2.266;2024-03-22T10:37:43;102817.88;;;11.77;100.00
73101;BME280;61288;53.446;-2.266;2024-03-22T10:40:09;102832.28;;;12.04;100.00
73101;BME280;61288;53.446;-2.266;2024-03-22T10:42:38;102842.50;;;12.18;100.00
73101;BME280;61288;53.446;-2.266;2024-03-22T10:45:05;102863.91;;;12.37;100.00
73101;BME280;61288;53.446;-2.266;2024-03-22T10:47:42;102865.06;;;12.80;100.00
73101;BME280;61288;53.446;-2.266;2024-03-22T10:50:13;102868.78;;;13.19;100.00
73101;BME280;61288;53.446;-2.266;2024-03-22T10:52:53;102850.75;;;13.60;100.00
73101;BME280;61288;53.446;-2.266;2024-03-22T10:57:55;102749.91;;;13.66;100.00
73101;BME280;61288;53.446;-2.266;2024-03-22T11:00:30;102742.78;;;13.75;100.00
73101;BME280;61288;53.446;-2.266;2024-03-22T11:02:59;102726.22;;;13.77;100.00
73101;BME280;61288;53.446;-2.266;2024-03-22T11:05:31;102684.34;;;13.85;100.00
73101;BME280;61288;53.446;-2.266;2024-03-22T11:08:00;102666.75;;;13.96;100.00
73101;BME280;61288;53.446;-2.266;2024-03-22T11:10:36;102591.94;;;13.21;100.00
73101;BME280;61288;53.446;-2.266;2024-03-22T11:13:05;102628.19;;;12.88;100.00
73101;BME280;61288;53.446;-2.266;2024-03-22T11:15:34;102682.53;;;12.55;100.00
73101;BME280;61288;53.446;-2.266;2024-03-22T11:18:00;102683.00;;;12.25;100.00
73101;BME280;61288;53.446;-2.266;2024-03-22T11:20:27;102716.00;;;12.74;100.00
73101;BME280;61288;53.446;-2.266;2024-03-22T11:22:52;102722.56;;;12.96;100.00
73101;BME280;61288;53.446;-2.266;2024-03-22T11:25:18;102702.03;;;13.28;100.00
73101;BME280;61288;53.446;-2.266;2024-03-22T11:27:45;102667.09;;;13.38;100.00
73101;BME280;61288;53.446;-2.266;2024-03-22T11:30:11;102631.47;;;13.39;100.00
73101;BME280;61288;53.446;-2.266;2024-03-22T11:32:36;102587.50;;;13.26;100.00
73101;BME280;61288;53.446;-2.266;2024-03-22T11:35:12;102555.13;;;13.38;100.00
73101;BME280;61288;53.446;-2.266;2024-03-22T11:37:39;102539.00;;;13.22;100.00
73101;BME280;61288;53.446;-2.266;2024-03-22T11:40:05;102398.69;;;13.48;100.00
73101;BME280;61288;53.446;-2.266;2024-03-22T11:42:44;102340.97;;;13.30;100.00
73101;BME280;61288;53.446;-2.266;2024-03-22T11:45:15;102306.34;;;13.26;100.00
73101;BME280;61288;53.446;-2.266;2024-03-22T11:47:44;102296.66;;;13.33;100.00
73101;BME280;61288;53.446;-2.266;2024-03-22T11:50:16;102265.63;;;13.57;100.00
73101;BME280;61288;53.446;-2.266;2024-03-22T11:52:43;102106.19;;;12.85;100.00
73101;BME280;61288;53.446;-2.266;2024-03-22T11:55:12;102200.25;;;13.03;100.00
73101;BME280;61288;53.446;-2.266;2024-03-22T11:57:37;102238.13;;;12.80;100.00
73101;BME280;61288;53.446;-2.266;2024-03-22T12:00:09;102284.94;;;12.82;100.00
73101;BME280;61288;53.446;-2.266;2024-03-22T12:02:35;102314.47;;;12.79;100.00
73101;BME280;61288;53.446;-2.266;2024-03-22T12:05:02;102331.53;;;12.90;100.00
73101;BME280;61288;53.446;-2.266;2024-03-22T12:07:28;102375.56;;;13.35;100.00
73101;BME280;61288;53.446;-2.266;2024-03-22T12:09:54;102305.66;;;12.85;100.00
73101;BME280;61288;53.446;-2.266;2024-03-22T12:12:21;102286.59;;;12.84;100.00
73101;BME280;61288;53.446;-2.266;2024-03-22T12:14:47;102276.19;;;12.84;100.00
73101;BME280;61288;53.446;-2.266;2024-03-22T12:17:13;102304.19;;;13.09;100.00
73101;BME280;61288;53.446;-2.266;2024-03-22T12:19:38;102295.75;;;13.34;100.00
73101;BME280;61288;53.446;-2.266;2024-03-22T12:22:04;102282.81;;;12.96;100.00
73101;BME280;61288;53.446;-2.266;2024-03-22T12:24:33;102152.00;;;12.58;100.00
73101;BME280;61288;53.446;-2.266;2024-03-22T12:26:59;102173.34;;;12.71;100.00
73101;BME280;61288;53.446;-2.266;2024-03-22T12:29:25;102228.75;;;13.08;100.00
73101;BME280;61288;53.446;-2.266;2024-03-22T12:31:50;102206.81;;;13.18;100.00
73101;BME280;61288;53.446;-2.266;2024-03-22T12:34:16;102184.13;;;13.22;100.00
73101;BME280;61288;53.446;-2.266;2024-03-22T12:36:42;102129.06;;;13.36;100.00